createdAt,value
2022-09-18T00:03:38.047Z,10.35
2022-09-18T00:08:41.064Z,10.16
2022-09-18T00:13:44.282Z,10.21
2022-09-18T00:18:48.996Z,10.24
2022-09-18T00:23:52.598Z,10.22
2022-09-18T00:28:57.036Z,10.19
2022-09-18T00:34:04.199Z,10.23
2022-09-18T00:39:07.307Z,10.25
2022-09-18T00:44:32.066Z,10.16
2022-09-18T00:49:37.697Z,10.39
2022-09-18T00:54:41.983Z,10.36
2022-09-18T00:59:47.271Z,10.28
2022-09-18T01:04:52.172Z,10.47
2022-09-18T01:10:04.616Z,10.37
2022-09-18T01:15:18.349Z,10.53
2022-09-18T01:20:56.172Z,10.54
2022-09-18T01:26:12.443Z,10.45
2022-09-18T01:31:20.585Z,10.47
2022-09-18T01:36:28.254Z,10.57
2022-09-18T01:41:31.533Z,10.46
2022-09-18T01:46:40.175Z,10.41
2022-09-18T01:51:48.822Z,10.53
2022-09-18T01:56:56.038Z,10.48
2022-09-18T02:02:04.992Z,10.47
2022-09-18T02:07:14.580Z,10.49
2022-09-18T02:12:21.306Z,10.61
2022-09-18T02:17:30.231Z,10.68
2022-09-18T02:22:35.844Z,10.61
2022-09-18T02:27:40.957Z,10.61
2022-09-18T02:32:44.700Z,10.61
2022-09-18T02:37:58.529Z,10.43
2022-09-18T02:43:16.507Z,10.46
2022-09-18T02:48:36.114Z,10.41
2022-09-18T02:53:46.125Z,10.65
2022-09-18T02:58:53.395Z,10.46
2022-09-18T03:04:03.526Z,10.35
2022-09-18T03:09:06.234Z,10.05
2022-09-18T03:14:09.013Z,9.60
2022-09-18T03:19:14.445Z,9.65
2022-09-18T03:24:17.295Z,9.89
2022-09-18T03:29:19.931Z,10.01
2022-09-18T03:34:23.766Z,9.82
2022-09-18T03:39:26.153Z,9.69
2022-09-18T03:44:28.585Z,9.62
2022-09-18T03:49:32.325Z,9.43
2022-09-18T03:54:34.735Z,9.45
2022-09-18T03:59:37.271Z,9.46
2022-09-18T04:04:41.010Z,9.50
2022-09-18T04:09:43.394Z,9.51
2022-09-18T04:14:45.829Z,9.84
2022-09-18T04:19:53.410Z,9.87
2022-09-18T04:24:56.267Z,10.02
2022-09-18T04:29:59.244Z,10.05
2022-09-18T04:35:02.982Z,10.10
2022-09-18T04:40:06.417Z,10.08
2022-09-18T04:45:10.853Z,9.89
2022-09-18T04:50:15.084Z,9.99
2022-09-18T04:55:17.622Z,10.14
2022-09-18T05:00:20.047Z,9.90
2022-09-18T05:05:24.643Z,10.06
2022-09-18T05:10:27.069Z,9.90
2022-09-18T05:15:29.743Z,9.94
2022-09-18T05:20:35.020Z,9.95
2022-09-18T05:25:37.448Z,10.00
2022-09-18T05:30:40.104Z,9.95
2022-09-18T05:35:44.076Z,9.97
2022-09-18T05:40:48.045Z,10.06
2022-09-18T05:45:50.626Z,10.06
2022-09-18T05:50:54.486Z,10.20
2022-09-18T05:55:56.940Z,10.19
2022-09-18T06:01:01.316Z,10.08
2022-09-18T06:06:05.546Z,9.96
2022-09-18T06:11:08.190Z,10.12
2022-09-18T06:16:10.692Z,10.26
2022-09-18T06:21:15.289Z,10.37
2022-09-18T06:26:17.685Z,10.46
2022-09-18T06:31:20.199Z,10.68
2022-09-18T06:36:24.021Z,10.69
2022-09-18T06:41:26.512Z,10.73
2022-09-18T06:46:28.962Z,10.65
2022-09-18T06:51:32.789Z,10.88
2022-09-18T06:56:35.266Z,10.88
2022-09-18T07:01:37.799Z,10.84
2022-09-18T07:06:44.963Z,10.89
2022-09-18T07:11:47.373Z,11.05
2022-09-18T07:16:49.809Z,11.24
2022-09-18T07:21:54.134Z,11.38
2022-09-18T07:26:56.940Z,11.63
2022-09-18T07:31:59.653Z,11.75
2022-09-18T07:37:03.559Z,11.73
2022-09-18T07:42:08.914Z,11.71
2022-09-18T07:47:12.602Z,12.11
2022-09-18T07:52:16.419Z,12.41
2022-09-18T07:57:18.878Z,12.48
2022-09-18T08:02:21.452Z,12.62
2022-09-18T08:07:26.574Z,12.64
2022-09-18T08:12:29.227Z,12.66
2022-09-18T08:17:31.697Z,13.13
2022-09-18T08:22:39.329Z,12.99
2022-09-18T08:27:42.700Z,13.26
2022-09-18T08:32:45.171Z,13.34
2022-09-18T08:38:01.973Z,13.79
2022-09-18T08:43:10.531Z,14.18
2022-09-18T08:48:16.964Z,14.60
2022-09-18T08:53:25.968Z,14.58
2022-09-18T08:58:34.600Z,14.07
2022-09-18T09:03:47.827Z,14.06
2022-09-18T09:09:13.424Z,13.72
2022-09-18T09:15:03.094Z,13.46
2022-09-18T09:20:19.018Z,13.23
2022-09-18T09:25:27.025Z,12.61
2022-09-18T09:30:31.869Z,12.92
2022-09-18T09:35:38.494Z,13.05
2022-09-18T09:40:46.296Z,13.60
2022-09-18T09:45:52.014Z,14.49
2022-09-18T09:50:57.908Z,14.38
2022-09-18T09:56:13.228Z,14.37
2022-09-18T10:01:23.341Z,14.60
2022-09-18T10:06:45.385Z,15.17
2022-09-18T10:11:57.862Z,14.40
2022-09-18T10:17:04.458Z,13.92
2022-09-18T10:22:08.929Z,13.60
2022-09-18T10:27:13.602Z,13.30
2022-09-18T10:32:35.749Z,12.66
2022-09-18T10:37:39.770Z,12.27
2022-09-18T10:42:44.369Z,12.48
2022-09-18T10:47:47.234Z,12.23
2022-09-18T10:53:02.747Z,12.17
2022-09-18T11:04:29.067Z,13.23
2022-09-18T11:09:37.272Z,14.12
2022-09-18T11:14:43.366Z,14.54
2022-09-18T11:19:52.275Z,13.26
2022-09-18T11:25:12.255Z,13.52
2022-09-18T11:30:17.631Z,13.88
2022-09-18T11:35:23.533Z,15.48
2022-09-18T11:40:29.975Z,14.83
2022-09-18T11:45:44.975Z,14.31
2022-09-18T11:50:51.250Z,14.40
2022-09-18T11:55:59.675Z,14.21
2022-09-18T12:01:14.485Z,14.59
2022-09-18T12:06:27.529Z,14.24
2022-09-18T12:11:36.219Z,13.98
2022-09-18T12:16:46.126Z,13.18
2022-09-18T12:21:56.581Z,13.03
2022-09-18T12:27:10.046Z,12.38
2022-09-18T12:32:29.497Z,12.01
2022-09-18T12:37:45.780Z,12.00
2022-09-18T12:43:03.817Z,12.51
2022-09-18T12:48:21.740Z,12.81
2022-09-18T12:53:36.330Z,12.98
2022-09-18T12:59:04.638Z,13.00
2022-09-18T13:04:20.204Z,13.27
2022-09-18T13:09:29.658Z,12.65
2022-09-18T13:14:37.707Z,12.42
2022-09-18T13:19:47.585Z,12.20
2022-09-18T13:24:54.299Z,12.65
2022-09-18T13:29:59.121Z,12.50
2022-09-18T13:35:05.072Z,12.39
2022-09-18T13:40:35.580Z,12.13
2022-09-18T13:45:39.895Z,12.44
2022-09-18T13:50:52.050Z,11.86
2022-09-18T13:55:55.933Z,11.64
2022-09-18T14:00:59.108Z,11.50
2022-09-18T14:06:36.581Z,11.65
2022-09-18T14:11:40.566Z,11.87
2022-09-18T14:16:44.848Z,11.54
2022-09-18T14:21:47.486Z,11.58
2022-09-18T14:27:16.766Z,11.20
2022-09-18T14:32:20.263Z,11.10
2022-09-18T14:37:26.839Z,11.08
2022-09-18T14:42:33.621Z,10.93
2022-09-18T14:47:36.686Z,10.86
2022-09-18T14:52:44.269Z,11.25
2022-09-18T14:57:53.388Z,10.85
2022-09-18T15:02:58.551Z,10.80
2022-09-18T15:08:04.689Z,10.53
2022-09-18T15:13:10.239Z,10.67
2022-09-18T15:18:21.257Z,10.61
2022-09-18T15:23:28.001Z,10.45
2022-09-18T15:28:35.452Z,10.45
2022-09-18T15:33:42.999Z,10.41
2022-09-18T15:38:48.008Z,10.40
2022-09-18T15:43:52.272Z,10.53
2022-09-18T15:48:59.347Z,10.40
2022-09-18T15:54:09.563Z,10.40
2022-09-18T15:59:23.297Z,10.33
2022-09-18T16:04:29.588Z,10.40
2022-09-18T16:09:38.826Z,10.02
2022-09-18T16:14:44.789Z,10.64
2022-09-18T16:19:47.424Z,10.48
2022-09-18T16:24:50.345Z,10.59
2022-09-18T16:29:54.384Z,10.74
2022-09-18T16:34:56.799Z,10.61
2022-09-18T16:40:00.800Z,10.57
2022-09-18T16:45:05.360Z,10.93
2022-09-18T16:50:08.165Z,11.30
2022-09-18T16:55:10.652Z,10.61
2022-09-18T17:00:15.877Z,10.53
2022-09-18T17:05:19.036Z,10.37
2022-09-18T17:10:21.576Z,10.05
2022-09-18T17:15:25.663Z,10.21
2022-09-18T17:20:28.142Z,9.99
2022-09-18T17:25:31.239Z,10.08
2022-09-18T17:30:35.091Z,10.09
2022-09-18T17:35:37.876Z,10.13
2022-09-18T17:40:40.386Z,10.39
2022-09-18T17:45:46.950Z,10.43
2022-09-18T17:50:49.647Z,10.35
2022-09-18T17:55:55.417Z,10.30
2022-09-18T18:01:00.216Z,10.19
2022-09-18T18:06:03.436Z,10.30
2022-09-18T18:11:07.892Z,10.62
2022-09-18T18:16:14.180Z,10.30
2022-09-18T18:21:17.693Z,9.29
2022-09-18T18:26:20.135Z,9.03
2022-09-18T18:31:25.528Z,9.17
2022-09-18T18:36:29.599Z,9.36
2022-09-18T18:41:33.652Z,9.07
2022-09-18T18:46:38.096Z,9.29
2022-09-18T18:51:43.598Z,9.56
2022-09-18T18:56:47.239Z,9.65
2022-09-18T19:01:51.202Z,9.46
2022-09-18T19:06:54.062Z,9.36
2022-09-18T19:11:57.724Z,9.61
2022-09-18T19:17:02.100Z,9.45
2022-09-18T19:22:04.569Z,9.29
2022-09-18T19:27:07.398Z,9.38
2022-09-18T19:32:11.619Z,9.77
2022-09-18T19:37:17.794Z,9.47
2022-09-18T19:42:21.018Z,9.39
2022-09-18T19:47:27.170Z,9.39
2022-09-18T19:52:30.063Z,9.36
2022-09-18T19:57:32.480Z,9.62
2022-09-18T20:02:36.363Z,9.44
2022-09-18T20:07:39.777Z,9.25
2022-09-18T20:12:43.346Z,9.26
2022-09-18T20:17:47.350Z,9.45
2022-09-18T20:22:53.963Z,9.84
2022-09-18T20:27:56.410Z,9.81
2022-09-18T20:33:01.839Z,9.59
2022-09-18T20:38:05.919Z,9.85
2022-09-18T20:43:08.533Z,9.80
2022-09-18T20:48:12.847Z,9.70
2022-09-18T20:53:15.381Z,9.90
2022-09-18T20:58:18.139Z,9.67
2022-09-18T21:03:22.371Z,9.69
2022-09-18T21:08:25.865Z,9.73
2022-09-18T21:13:28.272Z,9.81
2022-09-18T21:18:32.287Z,9.90
2022-09-18T21:23:52.360Z,9.65
2022-09-18T21:28:56.711Z,9.82
2022-09-18T21:34:01.658Z,9.62
2022-09-18T21:39:04.387Z,9.55
2022-09-18T21:44:08.839Z,9.48
2022-09-18T21:49:14.925Z,9.31
2022-09-18T21:54:19.528Z,9.58
2022-09-18T21:59:22.828Z,9.32
2022-09-18T22:04:29.033Z,9.36
2022-09-18T22:09:33.279Z,9.24
2022-09-18T22:14:38.142Z,9.30
2022-09-18T22:19:42.152Z,9.05
2022-09-18T22:24:44.552Z,9.22
2022-09-18T22:29:46.985Z,9.11
2022-09-18T22:34:52.659Z,9.11
2022-09-18T22:39:55.330Z,9.15
2022-09-18T22:44:57.826Z,8.92
2022-09-18T22:50:02.118Z,8.90
2022-09-18T22:55:04.924Z,8.79
2022-09-18T23:00:08.465Z,8.72
2022-09-18T23:05:12.405Z,8.94
2022-09-18T23:10:15.048Z,8.89
2022-09-18T23:15:17.601Z,8.90
2022-09-18T23:20:21.466Z,8.72
2022-09-18T23:25:23.865Z,8.69
2022-09-18T23:30:26.505Z,8.87
2022-09-18T23:35:30.232Z,8.91
2022-09-18T23:40:32.710Z,8.84
2022-09-18T23:45:35.197Z,9.05
2022-09-18T23:50:39.115Z,8.90
2022-09-18T23:55:41.550Z,9.14
